Arcola, PA

2:22 AM EDT on July 31, 2016 (GMT -0400)
Pin Oaks | | Change Station

Elev 220 ft 40.14 °N, 75.47 °W | Updated 12 minutes ago

Overcast
Overcast
73.4 °F
Feels Like 73.4 °F
N
0.0
Wind Variable Wind from ENE

Today
High -- | Low -- °F
--% Chance of Precip.
Yesterday
High -- | Low -- °F
Precip. -- in
Pressure 29.98 in
Visibility 4.0 miles
Clouds Few 800 ft
Mostly Cloudy 5000 ft
Overcast 5500 ft
Dew Point 73 °F
Humidity 99%
Rainfall 0.00 in
Snow Depth Not available.
5:59 AM 8:16 PM
Waning Crescent, 8% visible
SPECI KPTW 310619Z AUTO 00000KT 4SM BR FEW008 BKN050 OVC055 23/22 A2998 RMK AO2 T02280222
Pressure 29.98 in
Visibility 4.0 miles
Clouds Few 800 ft
Mostly Cloudy 5000 ft
Overcast 5500 ft
Dew Point 73 °F
Humidity 99%
Rainfall 0.00 in
Snow Depth Not available.
5:59 AM 8:16 PM
Waning Crescent, 8% visible
SPECI KPTW 310619Z AUTO 00000KT 4SM BR FEW008 BKN050 OVC055 23/22 A2998 RMK AO2 T02280222

10-Day Weather Forecast

Almanac

Astronomy

Jul. 31, 2016 Rise Set
Actual Time
Civil Twilight
Nautical Twilight
Astronomical Twilight
Moon
Length of Visible Light
Length of Day
Tomorrow will be .
, % of the Moon is Illuminated

Today's Extremes

State Highs State Lows

Community

WunderPhotos

Upload Photos

1,928,766 photos uploaded!

WunderBlog® & News

Nearby

Air Quality

  Air Quality AQ Index Pollutant
Not available.

Snow Depth

Station Depth Elevation

Earthquake Activity

City Distance Mag. Time & Date
Minimum magnitude displayed is 2.5.

Coastal Water Temperatures

Place Temperature

Stations

Nearby Weather Stations

Station Location Temp. Windchill Dew Point Humidity Wind Precip. Elev Updated Type
                   

Watches & Warnings

There are currently no watches in effect.